createdAt,value
2024-04-21T00:01:37.135Z,990.8
2024-04-21T00:04:03.228Z,990.8
2024-04-21T00:06:29.320Z,990.7
2024-04-21T00:08:55.408Z,990.7
2024-04-21T00:11:21.518Z,990.7
2024-04-21T00:13:47.606Z,990.7
2024-04-21T00:16:13.707Z,990.6
2024-04-21T00:18:39.803Z,990.5
2024-04-21T00:21:05.917Z,990.5
2024-04-21T00:23:32.117Z,990.5
2024-04-21T00:25:58.093Z,990.5
2024-04-21T00:28:24.179Z,990.4
2024-04-21T00:30:50.273Z,990.4
2024-04-21T00:33:15.398Z,990.4
2024-04-21T00:35:41.503Z,990.3
2024-04-21T00:38:07.587Z,990.3
2024-04-21T00:40:33.685Z,990.2
2024-04-21T00:42:59.781Z,990.1
2024-04-21T00:45:25.869Z,990.1
2024-04-21T00:47:51.975Z,990.2
2024-04-21T00:50:18.080Z,990.2
2024-04-21T00:52:44.164Z,990.1
2024-04-21T00:55:10.261Z,990.1
2024-04-21T00:57:36.352Z,990.1
2024-04-21T01:00:02.454Z,990.1
2024-04-21T01:02:28.566Z,990.1
2024-04-21T01:04:53.657Z,990.1
2024-04-21T01:07:19.761Z,990.1
2024-04-21T01:09:45.847Z,990.1
2024-04-21T01:12:11.944Z,990.1
2024-04-21T01:14:38.048Z,990
2024-04-21T01:17:04.155Z,990
2024-04-21T01:19:30.230Z,989.9
2024-04-21T01:21:56.323Z,989.9
2024-04-21T01:24:22.431Z,989.9
2024-04-21T01:26:48.524Z,989.8
2024-04-21T01:29:14.628Z,989.7
2024-04-21T01:31:40.720Z,989.7
2024-04-21T01:34:06.814Z,989.7
2024-04-21T01:36:31.919Z,989.6
2024-04-21T01:38:58.026Z,989.6
2024-04-21T01:41:24.130Z,989.6
2024-04-21T01:43:50.227Z,989.6
2024-04-21T01:46:16.308Z,989.5
2024-04-21T01:48:42.404Z,989.5
2024-04-21T01:51:08.498Z,989.4
2024-04-21T01:53:34.587Z,989.4
2024-04-21T01:56:00.684Z,989.3
2024-04-21T01:58:26.777Z,989.3
2024-04-21T02:00:52.883Z,989.3
2024-04-21T02:03:18.975Z,989.2
2024-04-21T02:05:45.057Z,989.2
2024-04-21T02:08:10.166Z,989.2
2024-04-21T02:10:36.273Z,989.2
2024-04-21T02:13:02.374Z,989.2
2024-04-21T02:15:28.459Z,989.2
2024-04-21T02:17:54.581Z,989.1
2024-04-21T02:20:20.650Z,989.1
2024-04-21T02:22:46.757Z,989.1
2024-04-21T02:25:12.854Z,989.1
2024-04-21T02:27:39.040Z,989
2024-04-21T02:30:05.030Z,989
2024-04-21T02:32:31.140Z,989
2024-04-21T02:34:57.231Z,989
2024-04-21T02:37:23.325Z,988.9
2024-04-21T02:39:48.443Z,988.9
2024-04-21T02:42:14.523Z,988.9
2024-04-21T02:44:40.639Z,988.9
2024-04-21T02:47:06.736Z,988.9
2024-04-21T02:49:32.824Z,988.9
2024-04-21T02:51:58.926Z,988.9
2024-04-21T02:54:25.020Z,988.8
2024-04-21T02:56:51.115Z,988.8
2024-04-21T02:59:17.193Z,988.7
2024-04-21T03:01:43.308Z,988.8
2024-04-21T03:04:09.391Z,988.7
2024-04-21T03:06:35.506Z,988.7
2024-04-21T03:09:01.595Z,988.7
2024-04-21T03:11:26.704Z,988.6
2024-04-21T03:13:52.814Z,988.5
2024-04-21T03:16:18.902Z,988.6
2024-04-21T03:18:44.976Z,988.5
2024-04-21T03:21:11.069Z,988.6
2024-04-21T03:23:37.166Z,988.6
2024-04-21T03:26:03.283Z,988.7
2024-04-21T03:28:29.368Z,988.7
2024-04-21T03:30:55.460Z,988.6
2024-04-21T03:33:21.572Z,988.7
2024-04-21T03:35:47.658Z,988.6
2024-04-21T03:38:13.756Z,988.6
2024-04-21T03:40:39.857Z,988.5
2024-04-21T03:43:05.097Z,988.4
2024-04-21T03:45:31.069Z,988.4
2024-04-21T03:47:57.158Z,988.4
2024-04-21T03:50:23.260Z,988.4
2024-04-21T03:52:49.346Z,988.4
2024-04-21T03:55:15.446Z,988.3
2024-04-21T03:57:41.532Z,988.3
2024-04-21T04:00:07.626Z,988.3
2024-04-21T04:02:33.718Z,988.2
2024-04-21T04:04:59.832Z,988.3
2024-04-21T04:07:25.932Z,988.3
2024-04-21T04:09:52.023Z,988.1
2024-04-21T04:12:18.127Z,988.1
2024-04-21T04:14:43.233Z,988.1
2024-04-21T04:17:09.316Z,988.1
2024-04-21T04:19:35.423Z,988.1
2024-04-21T04:22:01.510Z,988
2024-04-21T04:24:27.604Z,988
2024-04-21T04:26:53.697Z,988
2024-04-21T04:29:19.795Z,988
2024-04-21T04:31:45.906Z,988
2024-04-21T04:34:12.014Z,988
2024-04-21T04:36:38.086Z,988
2024-04-21T04:39:04.198Z,988
2024-04-21T04:41:30.283Z,988
2024-04-21T04:43:56.388Z,988
2024-04-21T04:46:21.483Z,988
2024-04-21T04:48:47.584Z,988
2024-04-21T04:51:13.679Z,988
2024-04-21T04:53:39.818Z,988
2024-04-21T04:56:05.863Z,988.1
2024-04-21T04:58:32.302Z,988.1
2024-04-21T05:00:58.069Z,988.1
2024-04-21T05:03:24.163Z,988.1
2024-04-21T05:05:50.280Z,988.1
2024-04-21T05:08:16.370Z,988.1
2024-04-21T05:10:42.453Z,988.1
2024-04-21T05:13:08.539Z,988.2
2024-04-21T05:15:34.647Z,988.1
2024-04-21T05:17:59.796Z,988.1
2024-04-21T05:20:25.851Z,988.1
2024-04-21T05:22:51.953Z,988.2
2024-04-21T05:25:18.045Z,988.2
2024-04-21T05:27:44.135Z,988.2
2024-04-21T05:30:10.245Z,988.2
2024-04-21T05:32:36.344Z,988.3
2024-04-21T05:35:02.455Z,988.3
2024-04-21T05:37:28.542Z,988.2
2024-04-21T05:39:54.633Z,988.3
2024-04-21T05:42:20.716Z,988.3
2024-04-21T05:44:46.820Z,988.4
2024-04-21T05:47:12.922Z,988.3
2024-04-21T05:49:38.032Z,988.4
2024-04-21T05:52:04.123Z,988.4
2024-04-21T05:54:30.224Z,988.3
2024-04-21T05:56:56.304Z,988.4
2024-04-21T05:59:22.390Z,988.3
2024-04-21T06:01:48.505Z,988.4
2024-04-21T06:04:14.613Z,988.4
2024-04-21T06:06:40.690Z,988.4
2024-04-21T06:09:06.788Z,988.4
2024-04-21T06:11:32.879Z,988.3
2024-04-21T06:13:58.964Z,988.3
2024-04-21T06:16:25.071Z,988.4
2024-04-21T06:18:51.194Z,988.4
2024-04-21T06:21:16.295Z,988.4
2024-04-21T06:23:42.364Z,988.4
2024-04-21T06:26:08.476Z,988.4
2024-04-21T06:28:34.573Z,988.3
2024-04-21T06:31:00.674Z,988.4
2024-04-21T06:33:26.763Z,988.4
2024-04-21T06:35:52.886Z,988.4
2024-04-21T06:38:18.952Z,988.3
2024-04-21T06:40:45.062Z,988.3
2024-04-21T06:43:11.142Z,988.3
2024-04-21T06:45:37.242Z,988.3
2024-04-21T06:48:03.337Z,988.3
2024-04-21T06:50:29.439Z,988.3
2024-04-21T06:52:54.552Z,988.2
2024-04-21T06:55:20.658Z,988.3
2024-04-21T06:57:46.749Z,988.3
2024-04-21T07:00:12.831Z,988.4
2024-04-21T07:02:38.934Z,988.4
2024-04-21T07:05:05.026Z,988.4
2024-04-21T07:07:31.124Z,988.4
2024-04-21T07:09:57.223Z,988.5
2024-04-21T07:12:23.316Z,988.4
2024-04-21T07:14:49.404Z,988.4
2024-04-21T07:17:15.519Z,988.5
2024-04-21T07:19:41.592Z,988.5
2024-04-21T07:22:07.699Z,988.5
2024-04-21T07:24:32.807Z,988.5
2024-04-21T07:26:58.914Z,988.5
2024-04-21T07:29:25.011Z,988.5
2024-04-21T07:31:51.098Z,988.5
2024-04-21T07:34:17.200Z,988.6
2024-04-21T07:36:43.283Z,988.5
2024-04-21T07:39:08.412Z,988.6
2024-04-21T07:41:34.500Z,988.5
2024-04-21T07:44:00.601Z,988.5
2024-04-21T07:46:26.704Z,988.5
2024-04-21T07:48:52.796Z,988.6
2024-04-21T07:51:18.917Z,988.5
2024-04-21T07:53:44.965Z,988.6
2024-04-21T07:56:11.079Z,988.7
2024-04-21T07:58:37.173Z,988.6
2024-04-21T08:01:03.272Z,988.6
2024-04-21T08:03:29.365Z,988.6
2024-04-21T08:05:55.460Z,988.6
2024-04-21T08:08:21.550Z,988.6
2024-04-21T08:10:46.667Z,988.7
2024-04-21T08:13:12.778Z,988.7
2024-04-21T08:15:38.862Z,988.6
2024-04-21T08:18:04.945Z,988.6
2024-04-21T08:20:31.050Z,988.7
2024-04-21T08:22:57.145Z,988.7
2024-04-21T08:25:23.237Z,988.8
2024-04-21T08:27:49.338Z,988.8
2024-04-21T08:30:15.440Z,988.8
2024-04-21T08:32:41.534Z,988.9
2024-04-21T08:35:07.641Z,989
2024-04-21T08:37:33.721Z,988.9
2024-04-21T08:39:59.816Z,988.9
2024-04-21T08:42:25.897Z,989
2024-04-21T08:44:51.982Z,988.9
2024-04-21T08:47:18.115Z,988.9
2024-04-21T08:49:44.196Z,988.9
2024-04-21T08:52:10.269Z,988.9
2024-04-21T08:54:36.373Z,988.9
2024-04-21T08:57:02.474Z,988.9
2024-04-21T08:59:28.573Z,989
2024-04-21T09:01:53.680Z,989
2024-04-21T09:04:19.770Z,989
2024-04-21T09:06:45.852Z,989
2024-04-21T09:09:11.959Z,989
2024-04-21T09:11:38.056Z,989
2024-04-21T09:14:04.152Z,989
2024-04-21T09:16:30.233Z,989
2024-04-21T09:18:56.347Z,988.9
2024-04-21T09:21:22.448Z,989
2024-04-21T09:23:48.527Z,989
2024-04-21T09:26:14.616Z,988.9
2024-04-21T09:28:40.718Z,989
2024-04-21T09:31:06.797Z,989
2024-04-21T09:33:31.922Z,989
2024-04-21T09:35:58.030Z,989.1
2024-04-21T09:38:24.120Z,989
2024-04-21T09:40:50.210Z,989
2024-04-21T09:43:16.294Z,989
2024-04-21T09:45:42.386Z,989
2024-04-21T09:48:08.492Z,988.9
2024-04-21T09:50:34.575Z,989
2024-04-21T09:53:00.666Z,989
2024-04-21T09:55:26.776Z,989
2024-04-21T09:57:52.877Z,988.9
2024-04-21T10:00:18.953Z,988.9
2024-04-21T10:02:45.056Z,989
2024-04-21T10:05:10.165Z,989
2024-04-21T10:07:36.262Z,989
2024-04-21T10:10:02.370Z,988.9
2024-04-21T10:12:28.455Z,988.9
2024-04-21T10:14:54.553Z,988.9
2024-04-21T10:17:20.624Z,988.9
2024-04-21T10:19:46.738Z,988.9
2024-04-21T10:22:12.829Z,988.9
2024-04-21T10:24:38.926Z,988.9
2024-04-21T10:27:05.034Z,988.9
2024-04-21T10:29:31.122Z,988.8
2024-04-21T10:31:57.216Z,988.8
2024-04-21T10:34:23.299Z,988.8
2024-04-21T10:36:48.410Z,988.8
2024-04-21T10:39:14.533Z,988.9
2024-04-21T10:41:40.593Z,988.8
2024-04-21T10:44:06.695Z,988.8
2024-04-21T10:46:32.815Z,988.8
2024-04-21T10:48:58.876Z,988.7
2024-04-21T10:51:24.981Z,988.8
2024-04-21T10:53:51.092Z,988.7
2024-04-21T10:56:17.171Z,988.7
2024-04-21T10:58:43.256Z,988.7
2024-04-21T11:01:09.355Z,988.7
2024-04-21T11:03:35.450Z,988.7
2024-04-21T11:06:01.555Z,988.6
2024-04-21T11:08:26.677Z,988.6
2024-04-21T11:10:52.763Z,988.7
2024-04-21T11:13:18.863Z,988.7
2024-04-21T11:15:44.949Z,988.6
2024-04-21T11:18:11.040Z,988.6
2024-04-21T11:20:37.149Z,988.5
2024-04-21T11:23:03.230Z,988.6
2024-04-21T11:25:29.319Z,988.7
2024-04-21T11:27:55.434Z,988.6
2024-04-21T11:30:21.525Z,988.6
2024-04-21T11:32:47.606Z,988.7
2024-04-21T11:35:13.721Z,988.7
2024-04-21T11:37:39.799Z,988.6
2024-04-21T11:40:04.899Z,988.6
2024-04-21T11:42:31.006Z,988.5
2024-04-21T11:44:57.087Z,988.6
2024-04-21T11:47:23.199Z,988.6
2024-04-21T11:49:49.287Z,988.6
2024-04-21T11:52:15.378Z,988.6
2024-04-21T11:54:41.483Z,988.6
2024-04-21T11:57:07.566Z,988.6
2024-04-21T11:59:33.676Z,988.6
2024-04-21T12:01:59.767Z,988.6
2024-04-21T12:04:25.876Z,988.5
2024-04-21T12:06:51.952Z,988.6
2024-04-21T12:09:18.033Z,988.6
2024-04-21T12:11:44.150Z,988.7
2024-04-21T12:14:10.240Z,988.6
2024-04-21T12:16:36.335Z,988.6
2024-04-21T12:19:02.420Z,988.6
2024-04-21T12:21:28.531Z,988.5
2024-04-21T12:23:53.625Z,988.5
2024-04-21T12:26:19.740Z,988.6
2024-04-21T12:28:45.821Z,988.5
2024-04-21T12:31:11.924Z,988.6
2024-04-21T12:33:38.003Z,988.6
2024-04-21T12:36:04.099Z,988.6
2024-04-21T12:38:30.208Z,988.6
2024-04-21T12:40:56.306Z,988.6
2024-04-21T12:43:22.382Z,988.6
2024-04-21T12:45:48.485Z,988.7
2024-04-21T12:48:14.574Z,988.6
2024-04-21T12:50:40.674Z,988.7
2024-04-21T12:53:06.772Z,988.7
2024-04-21T12:55:31.932Z,988.7
2024-04-21T12:57:57.967Z,988.7
2024-04-21T13:00:24.088Z,988.6
2024-04-21T13:02:50.163Z,988.7
2024-04-21T13:05:16.270Z,988.8
2024-04-21T13:07:42.336Z,988.8
2024-04-21T13:10:08.456Z,988.8
2024-04-21T13:12:34.547Z,988.7
2024-04-21T13:15:00.646Z,988.7
2024-04-21T13:17:26.726Z,988.7
2024-04-21T13:19:52.822Z,988.7
2024-04-21T13:22:18.937Z,988.7
2024-04-21T13:24:45.017Z,988.8
2024-04-21T13:27:10.134Z,988.8
2024-04-21T13:29:36.214Z,988.8
2024-04-21T13:32:02.309Z,988.8
2024-04-21T13:34:28.419Z,988.8
2024-04-21T13:36:54.509Z,988.8
2024-04-21T13:39:20.614Z,988.8
2024-04-21T13:41:46.697Z,988.8
2024-04-21T13:44:12.797Z,988.8
2024-04-21T13:46:38.907Z,988.8
2024-04-21T13:49:04.988Z,988.8
2024-04-21T13:51:31.084Z,988.8
2024-04-21T13:53:57.170Z,988.8
2024-04-21T13:56:23.314Z,988.9
2024-04-21T13:58:48.374Z,988.8
2024-04-21T14:01:14.473Z,988.9
2024-04-21T14:03:40.558Z,988.9
2024-04-21T14:06:06.663Z,988.9
2024-04-21T14:08:32.765Z,988.9
2024-04-21T14:10:58.839Z,988.9
2024-04-21T14:13:24.953Z,989
2024-04-21T14:15:51.042Z,989
2024-04-21T14:18:17.116Z,989
2024-04-21T14:20:43.212Z,989
2024-04-21T14:23:09.301Z,989.1
2024-04-21T14:25:35.404Z,989
2024-04-21T14:28:01.497Z,989.1
2024-04-21T14:30:26.631Z,989
2024-04-21T14:32:52.711Z,989
2024-04-21T14:35:18.788Z,989.1
2024-04-21T14:37:44.894Z,989.1
2024-04-21T14:40:11.005Z,989
2024-04-21T14:42:37.081Z,989.1
2024-04-21T14:45:03.199Z,989.2
2024-04-21T14:47:29.284Z,989.2
2024-04-21T14:49:55.385Z,989.1
2024-04-21T14:52:21.476Z,989.2
2024-04-21T14:54:47.561Z,989.2
2024-04-21T14:57:13.658Z,989.2
2024-04-21T14:59:39.761Z,989.2
2024-04-21T15:02:04.868Z,989.3
2024-04-21T15:04:30.969Z,989.3
2024-04-21T15:06:57.072Z,989.4
2024-04-21T15:09:23.147Z,989.4
2024-04-21T15:11:49.236Z,989.3
2024-04-21T15:14:15.346Z,989.3
2024-04-21T15:16:41.478Z,989.3
2024-04-21T15:19:07.548Z,989.3
2024-04-21T15:21:33.641Z,989.4
2024-04-21T15:23:59.883Z,989.4
2024-04-21T15:26:25.938Z,989.4
2024-04-21T15:28:52.311Z,989.5
2024-04-21T15:31:18.010Z,989.5
2024-04-21T15:33:43.113Z,989.5
2024-04-21T15:36:09.221Z,989.5
2024-04-21T15:38:35.307Z,989.5
2024-04-21T15:41:01.403Z,989.5
2024-04-21T15:43:27.487Z,989.5
2024-04-21T15:45:53.596Z,989.5
2024-04-21T15:48:18.703Z,989.6
2024-04-21T15:50:44.826Z,989.6
2024-04-21T15:53:10.961Z,989.6
2024-04-21T15:55:37.011Z,989.6
2024-04-21T15:58:03.111Z,989.6
2024-04-21T16:00:29.211Z,989.6
2024-04-21T16:02:55.281Z,989.6
2024-04-21T16:05:21.403Z,989.7
2024-04-21T16:07:47.483Z,989.7
2024-04-21T16:10:13.602Z,989.7
2024-04-21T16:12:39.666Z,989.7
2024-04-21T16:15:05.749Z,989.6
2024-04-21T16:17:31.851Z,989.6
2024-04-21T16:19:56.985Z,989.7
2024-04-21T16:22:23.076Z,989.7
2024-04-21T16:24:49.171Z,989.7
2024-04-21T16:27:15.256Z,989.7
2024-04-21T16:29:41.340Z,989.7
2024-04-21T16:32:07.426Z,989.7
2024-04-21T16:34:33.540Z,989.8
2024-04-21T16:36:59.621Z,989.8
2024-04-21T16:39:25.716Z,989.8
2024-04-21T16:41:51.825Z,989.8
2024-04-21T16:44:17.924Z,989.8
2024-04-21T16:46:43.996Z,989.8
2024-04-21T16:49:10.084Z,989.9
2024-04-21T16:51:35.225Z,989.9
2024-04-21T16:54:01.306Z,989.9
2024-04-21T16:56:27.407Z,990
2024-04-21T16:58:53.494Z,990
2024-04-21T17:01:19.596Z,990
2024-04-21T17:03:45.671Z,990
2024-04-21T17:06:11.774Z,990.1
2024-04-21T17:08:37.938Z,990.1
2024-04-21T17:11:03.956Z,990.2
2024-04-21T17:13:30.064Z,990.2
2024-04-21T17:15:56.173Z,990.2
2024-04-21T17:18:22.258Z,990.3
2024-04-21T17:20:48.338Z,990.3
2024-04-21T17:23:13.468Z,990.3
2024-04-21T17:25:39.559Z,990.3
2024-04-21T17:28:05.651Z,990.3
2024-04-21T17:30:31.739Z,990.3
2024-04-21T17:32:57.882Z,990.3
2024-04-21T17:35:24.001Z,990.4
2024-04-21T17:37:50.017Z,990.4
2024-04-21T17:40:16.129Z,990.4
2024-04-21T17:42:42.236Z,990.4
2024-04-21T17:45:08.323Z,990.5
2024-04-21T17:47:34.442Z,990.5
2024-04-21T17:50:00.495Z,990.5
2024-04-21T17:52:26.608Z,990.6
2024-04-21T17:57:17.826Z,990.6
2024-04-21T17:59:43.896Z,990.6
2024-04-21T18:02:09.996Z,990.7
2024-04-21T18:04:36.084Z,990.7
2024-04-21T18:07:02.177Z,990.8
2024-04-21T18:09:28.288Z,990.8
2024-04-21T18:11:54.370Z,990.9
2024-04-21T18:14:20.454Z,990.8
2024-04-21T18:16:46.570Z,990.9
2024-04-21T18:19:12.667Z,990.9
2024-04-21T18:21:38.753Z,990.9
2024-04-21T18:24:04.852Z,990.8
2024-04-21T18:26:29.962Z,990.9
2024-04-21T18:28:56.055Z,990.9
2024-04-21T18:31:22.153Z,991
2024-04-21T18:33:48.235Z,991
2024-04-21T18:36:14.339Z,991
2024-04-21T18:38:40.447Z,991
2024-04-21T18:41:06.596Z,991
2024-04-21T18:43:32.653Z,991.1
2024-04-21T18:45:58.719Z,991.1
2024-04-21T18:48:24.802Z,991.1
2024-04-21T18:50:50.920Z,991.2
2024-04-21T18:53:17.009Z,991.2
2024-04-21T18:55:43.126Z,991.2
2024-04-21T18:58:08.231Z,991.2
2024-04-21T19:00:34.318Z,991.3
2024-04-21T19:03:00.399Z,991.3
2024-04-21T19:05:26.499Z,991.4
2024-04-21T19:07:52.595Z,991.4
2024-04-21T19:10:18.678Z,991.3
2024-04-21T19:12:44.811Z,991.4
2024-04-21T19:15:10.888Z,991.4
2024-04-21T19:17:36.968Z,991.4
2024-04-21T19:20:03.081Z,991.4
2024-04-21T19:22:29.178Z,991.5
2024-04-21T19:24:55.250Z,991.5
2024-04-21T19:27:21.404Z,991.5
2024-04-21T19:29:46.480Z,991.5
2024-04-21T19:32:12.565Z,991.6
2024-04-21T19:34:38.661Z,991.5
2024-04-21T19:37:04.776Z,991.5
2024-04-21T19:39:30.860Z,991.5
2024-04-21T19:41:56.944Z,991.6
2024-04-21T19:44:23.070Z,991.5
2024-04-21T19:46:49.160Z,991.5
2024-04-21T19:49:15.227Z,991.6
2024-04-21T19:51:41.351Z,991.6
2024-04-21T19:54:07.425Z,991.6
2024-04-21T19:56:33.536Z,991.6
2024-04-21T19:58:59.616Z,991.6
2024-04-21T20:01:24.721Z,991.6
2024-04-21T20:03:50.814Z,991.6
2024-04-21T20:06:16.945Z,991.7
2024-04-21T20:08:43.002Z,991.7
2024-04-21T20:11:09.115Z,991.7
2024-04-21T20:13:35.209Z,991.8
2024-04-21T20:16:01.318Z,991.8
2024-04-21T20:18:27.401Z,991.8
2024-04-21T20:20:53.493Z,991.8
2024-04-21T20:23:19.589Z,991.8
2024-04-21T20:25:45.709Z,991.8
2024-04-21T20:28:11.774Z,991.9
2024-04-21T20:30:37.855Z,991.9
2024-04-21T20:33:02.985Z,991.9
2024-04-21T20:35:29.079Z,991.9
2024-04-21T20:37:55.172Z,991.9
2024-04-21T20:40:21.274Z,991.9
2024-04-21T20:42:47.358Z,991.9
2024-04-21T20:45:13.438Z,992
2024-04-21T20:47:39.549Z,992
2024-04-21T20:50:05.666Z,992
2024-04-21T20:52:31.753Z,992.1
2024-04-21T20:54:57.844Z,992
2024-04-21T20:57:23.930Z,992.1
2024-04-21T20:59:50.030Z,992.1
2024-04-21T21:02:16.106Z,992.1
2024-04-21T21:04:41.239Z,992.1
2024-04-21T21:07:07.330Z,992.1
2024-04-21T21:09:33.422Z,992.1
2024-04-21T21:11:59.635Z,992.1
2024-04-21T21:14:25.624Z,992.1
2024-04-21T21:16:51.714Z,992.1
2024-04-21T21:19:17.798Z,992.2
2024-04-21T21:21:43.899Z,992.1
2024-04-21T21:24:09.981Z,992.1
2024-04-21T21:26:36.085Z,992.1
2024-04-21T21:29:02.183Z,992.1
2024-04-21T21:31:28.276Z,992
2024-04-21T21:33:54.376Z,992.1
2024-04-21T21:36:19.479Z,992.1
2024-04-21T21:38:45.589Z,992.1
2024-04-21T21:41:11.683Z,992.1
2024-04-21T21:43:37.779Z,992.1
2024-04-21T21:46:03.896Z,992.1
2024-04-21T21:48:29.977Z,992.1
2024-04-21T21:50:56.048Z,992.1
2024-04-21T21:53:22.214Z,992.1
2024-04-21T21:55:48.246Z,992.1
2024-04-21T21:58:14.359Z,992.1
2024-04-21T22:00:40.446Z,992.1
2024-04-21T22:03:06.535Z,992.1
2024-04-21T22:05:32.687Z,992.1
2024-04-21T22:07:58.863Z,992.1
2024-04-21T22:10:24.959Z,992.1
2024-04-21T22:12:51.048Z,992.1
2024-04-21T22:15:17.155Z,992.1
2024-04-21T22:17:43.242Z,992.1
2024-04-21T22:20:09.333Z,992.1
2024-04-21T22:22:35.445Z,992.2
2024-04-21T22:25:01.512Z,992.2
2024-04-21T22:27:27.632Z,992.1
2024-04-21T22:29:53.733Z,992.2
2024-04-21T22:32:19.847Z,992.1
2024-04-21T22:34:45.931Z,992.1
2024-04-21T22:37:12.003Z,992.2
2024-04-21T22:39:37.108Z,992.2
2024-04-21T22:42:03.197Z,992.2
2024-04-21T22:44:29.314Z,992.2
2024-04-21T22:46:55.443Z,992.2
2024-04-21T22:49:21.507Z,992.2
2024-04-21T22:51:47.582Z,992.2
2024-04-21T22:54:13.677Z,992.2
2024-04-21T22:56:39.795Z,992.1
2024-04-21T22:59:05.894Z,992.2
2024-04-21T23:01:31.966Z,992.2
2024-04-21T23:03:58.059Z,992.1
2024-04-21T23:06:24.168Z,992.2
2024-04-21T23:08:50.269Z,992.1
2024-04-21T23:11:15.363Z,992.1
2024-04-21T23:13:41.463Z,992.1
2024-04-21T23:16:07.600Z,992.1
2024-04-21T23:18:33.655Z,992.1
2024-04-21T23:20:59.753Z,992.2
2024-04-21T23:23:25.853Z,992.1
2024-04-21T23:25:51.949Z,992.1
2024-04-21T23:28:18.053Z,992.1
2024-04-21T23:30:44.146Z,992.1
2024-04-21T23:33:10.251Z,992.2
2024-04-21T23:35:36.347Z,992.2
2024-04-21T23:38:02.413Z,992.2
2024-04-21T23:40:28.566Z,992.1
2024-04-21T23:42:53.627Z,992.1
2024-04-21T23:45:19.760Z,992.2
2024-04-21T23:47:45.834Z,992.1
2024-04-21T23:50:11.916Z,992
2024-04-21T23:52:38.022Z,992.1
2024-04-21T23:55:04.120Z,992
2024-04-21T23:57:29.239Z,992.1
2024-04-21T23:59:55.324Z,992
